createdAt,value
2019-02-22T00:01:19.019Z,82.50
2019-02-22T00:03:49.902Z,78.83
2019-02-22T00:06:20.784Z,78.37
2019-02-22T00:08:51.694Z,69.87
2019-02-22T00:11:22.625Z,73.07
2019-02-22T00:13:53.496Z,69.47
2019-02-22T00:16:24.439Z,64.50
2019-02-22T00:18:55.347Z,61.77
2019-02-22T00:21:26.257Z,61.20
2019-02-22T00:23:56.850Z,62.20
2019-02-22T00:26:27.357Z,52.57
2019-02-22T00:28:58.129Z,54.53
2019-02-22T00:31:28.572Z,56.40
2019-02-22T00:33:59.095Z,60.97
2019-02-22T00:36:29.536Z,58.23
2019-02-22T00:39:00.293Z,58.77
2019-02-22T00:41:30.788Z,63.73
2019-02-22T00:44:01.244Z,66.00
2019-02-22T00:46:31.609Z,63.20
2019-02-22T00:49:02.145Z,63.67
2019-02-22T00:51:32.918Z,57.17
2019-02-22T00:54:03.462Z,55.20
2019-02-22T00:56:33.969Z,49.33
2019-02-22T00:59:04.538Z,48.00
2019-02-22T01:01:34.940Z,52.33
2019-02-22T01:04:05.426Z,54.30
2019-02-22T01:06:35.939Z,50.73
2019-02-22T01:09:06.918Z,51.57
2019-02-22T01:11:37.502Z,46.20
2019-02-22T01:14:08.077Z,50.87
2019-02-22T01:16:38.567Z,50.67
2019-02-22T01:19:09.058Z,50.47
2019-02-22T01:21:39.607Z,48.57
2019-02-22T01:24:10.193Z,53.07
2019-02-22T01:26:41.377Z,50.50
2019-02-22T01:29:12.124Z,48.43
2019-02-22T01:31:42.731Z,50.40
2019-02-22T01:34:13.149Z,51.07
2019-02-22T01:36:43.634Z,47.87
2019-02-22T01:39:13.974Z,42.80
2019-02-22T01:41:44.888Z,47.70
2019-02-22T01:44:22.407Z,45.23
2019-02-22T01:46:52.860Z,47.23
2019-02-22T01:49:23.272Z,45.10
2019-02-22T01:51:53.759Z,45.63
2019-02-22T01:54:24.250Z,47.13
2019-02-22T01:56:55.104Z,47.67
2019-02-22T01:59:26.053Z,40.80
2019-02-22T02:01:56.625Z,37.80
2019-02-22T02:04:27.184Z,42.80
2019-02-22T02:06:57.690Z,48.37
2019-02-22T02:09:28.351Z,42.80
2019-02-22T02:12:01.718Z,43.50
2019-02-22T02:14:31.287Z,45.90
2019-02-22T02:17:01.727Z,36.77
2019-02-22T02:19:32.261Z,37.10
2019-02-22T02:22:02.788Z,30.53
2019-02-22T02:24:33.247Z,28.13
2019-02-22T02:27:03.800Z,31.07
2019-02-22T02:29:34.257Z,24.57
2019-02-22T02:32:04.813Z,27.33
2019-02-22T02:34:35.272Z,26.50
2019-02-22T02:37:05.878Z,27.03
2019-02-22T02:39:36.551Z,26.40
2019-02-22T02:42:07.447Z,31.13
2019-02-22T02:44:37.945Z,24.13
2019-02-22T02:47:08.764Z,18.27
2019-02-22T02:49:39.214Z,13.97
2019-02-22T02:52:09.531Z,6.97
2019-02-22T02:54:39.873Z,3.10
2019-02-22T02:57:12.546Z,3.07
2019-02-22T02:59:42.899Z,4.37
2019-02-22T03:02:24.571Z,5.10
2019-02-22T03:04:54.981Z,6.47
2019-02-22T03:07:44.250Z,11.53
2019-02-22T03:10:14.924Z,9.37
2019-02-22T03:12:45.420Z,7.93
2019-02-22T03:15:17.595Z,11.13
2019-02-22T03:17:48.148Z,9.73
2019-02-22T03:20:18.746Z,10.60
2019-02-22T03:22:49.355Z,14.60
2019-02-22T03:25:19.973Z,14.87
2019-02-22T03:27:50.474Z,17.53
2019-02-22T03:30:20.891Z,11.60
2019-02-22T03:32:51.386Z,18.97
2019-02-22T03:35:22.055Z,11.83
2019-02-22T03:37:52.568Z,14.87
2019-02-22T03:40:23.145Z,17.07
2019-02-22T03:42:53.696Z,11.33
2019-02-22T03:45:24.436Z,7.77
2019-02-22T03:47:56.618Z,8.87
2019-02-22T03:50:27.184Z,12.20
2019-02-22T03:53:16.639Z,10.43
2019-02-22T03:55:47.239Z,11.83
2019-02-22T03:58:17.765Z,11.03
2019-02-22T04:00:48.454Z,11.50
2019-02-22T04:03:19.030Z,15.27
2019-02-22T04:05:49.414Z,18.60
2019-02-22T04:08:19.945Z,15.17
2019-02-22T04:10:50.664Z,13.63
2019-02-22T04:13:21.074Z,22.60
2019-02-22T04:15:51.447Z,9.73
2019-02-22T04:18:21.860Z,14.67
2019-02-22T04:20:52.307Z,14.83
2019-02-22T04:23:22.864Z,11.07
2019-02-22T04:25:53.503Z,12.50
2019-02-22T04:28:23.903Z,9.33
2019-02-22T04:30:54.330Z,13.53
2019-02-22T04:33:24.866Z,6.53
2019-02-22T04:35:55.244Z,9.50
2019-02-22T04:38:25.725Z,10.30
2019-02-22T04:40:56.188Z,8.73
2019-02-22T04:43:26.594Z,13.10
2019-02-22T04:45:57.143Z,20.23
2019-02-22T04:48:27.593Z,13.80
2019-02-22T04:50:57.943Z,17.67
2019-02-22T04:53:28.363Z,14.77
2019-02-22T04:55:59.486Z,9.67
2019-02-22T04:58:29.991Z,10.77
2019-02-22T05:01:00.405Z,8.67
2019-02-22T05:03:30.799Z,10.37
2019-02-22T05:06:01.275Z,8.43
2019-02-22T05:08:31.626Z,14.93
2019-02-22T05:11:02.062Z,10.27
2019-02-22T05:13:34.324Z,12.43
2019-02-22T05:16:04.849Z,12.10
2019-02-22T05:18:35.282Z,22.20
2019-02-22T05:21:05.811Z,15.80
2019-02-22T05:23:36.300Z,16.03
2019-02-22T05:26:06.815Z,22.37
2019-02-22T05:28:37.295Z,24.00
2019-02-22T05:31:07.726Z,14.30
2019-02-22T05:33:38.269Z,20.03
2019-02-22T05:36:09.542Z,23.87
2019-02-22T05:38:40.142Z,14.17
2019-02-22T05:41:11.007Z,15.83
2019-02-22T05:43:42.184Z,31.33
2019-02-22T05:46:16.282Z,14.10
2019-02-22T05:48:49.040Z,20.70
2019-02-22T05:51:19.680Z,20.47
2019-02-22T05:53:50.503Z,21.53
2019-02-22T05:56:21.181Z,16.87
2019-02-22T05:58:51.660Z,9.90
2019-02-22T06:01:22.840Z,11.33
2019-02-22T06:03:53.200Z,12.87
2019-02-22T06:06:23.839Z,13.60
2019-02-22T06:08:54.665Z,11.10
2019-02-22T06:11:25.189Z,8.93
2019-02-22T06:13:55.643Z,17.00
2019-02-22T06:16:26.164Z,8.63
2019-02-22T06:18:56.554Z,9.30
2019-02-22T06:21:26.961Z,12.20
2019-02-22T06:23:57.495Z,14.23
2019-02-22T06:26:30.384Z,10.30
2019-02-22T06:29:00.118Z,18.30
2019-02-22T06:31:30.645Z,16.00
2019-02-22T06:34:01.272Z,12.67
2019-02-22T06:36:31.670Z,21.70
2019-02-22T06:39:02.212Z,14.43
2019-02-22T06:41:32.764Z,19.13
2019-02-22T06:44:03.309Z,18.50
2019-02-22T06:46:34.010Z,12.43
2019-02-22T06:49:04.979Z,14.97
2019-02-22T06:51:35.579Z,22.13
2019-02-22T06:54:06.357Z,14.07
2019-02-22T06:56:37.029Z,21.53
2019-02-22T06:59:07.679Z,19.60
2019-02-22T07:01:38.211Z,13.60
2019-02-22T07:04:09.063Z,11.10
2019-02-22T07:06:39.893Z,14.27
2019-02-22T07:09:10.562Z,17.17
2019-02-22T07:11:54.339Z,9.77
2019-02-22T07:14:24.823Z,13.90
2019-02-22T07:16:55.455Z,13.83
2019-02-22T07:19:25.932Z,4.67
2019-02-22T07:21:57.377Z,6.33
2019-02-22T07:24:27.974Z,9.67
2019-02-22T07:26:58.990Z,7.93
2019-02-22T07:29:29.595Z,6.80
2019-02-22T07:32:05.897Z,10.43
2019-02-22T07:34:32.416Z,11.10
2019-02-22T07:37:03.209Z,8.13
2019-02-22T07:39:33.777Z,4.90
2019-02-22T07:42:04.521Z,9.27
2019-02-22T07:44:34.955Z,9.73
2019-02-22T07:47:07.207Z,6.13
2019-02-22T07:49:37.690Z,9.87
2019-02-22T07:52:08.190Z,11.33
2019-02-22T07:54:38.635Z,5.70
2019-02-22T07:57:09.204Z,5.23
2019-02-22T07:59:39.661Z,11.53
2019-02-22T08:02:10.302Z,9.73
2019-02-22T08:04:40.734Z,9.97
2019-02-22T08:07:11.326Z,12.40
2019-02-22T08:09:41.866Z,10.70
2019-02-22T08:12:12.405Z,7.27
2019-02-22T08:14:42.961Z,9.20
2019-02-22T08:17:14.698Z,6.73
2019-02-22T08:19:45.397Z,9.60
2019-02-22T08:22:15.884Z,9.70
2019-02-22T08:24:46.348Z,7.50
2019-02-22T08:27:16.874Z,5.83
2019-02-22T08:29:47.368Z,7.20
2019-02-22T08:32:17.860Z,5.43
2019-02-22T08:34:48.447Z,7.40
2019-02-22T08:37:19.018Z,6.27
2019-02-22T08:39:58.554Z,9.80
2019-02-22T08:42:25.003Z,10.27
2019-02-22T08:44:55.583Z,11.40
2019-02-22T08:47:26.022Z,8.70
2019-02-22T08:49:56.539Z,5.80
2019-02-22T08:52:27.164Z,7.50
2019-02-22T08:54:57.809Z,7.03
2019-02-22T08:57:28.450Z,10.97
2019-02-22T08:59:59.394Z,11.87
2019-02-22T09:02:29.848Z,9.90
2019-02-22T09:05:00.397Z,10.13
2019-02-22T09:07:31.117Z,10.13
2019-02-22T09:10:01.600Z,5.33
2019-02-22T09:12:32.323Z,9.93
2019-02-22T09:15:02.960Z,11.97
2019-02-22T09:17:33.585Z,11.30
2019-02-22T09:20:04.190Z,7.47
2019-02-22T09:22:35.169Z,8.17
2019-02-22T09:25:06.113Z,11.40
2019-02-22T09:27:37.483Z,7.17
2019-02-22T09:30:09.863Z,11.23
2019-02-22T09:32:40.415Z,7.97
2019-02-22T09:35:11.984Z,9.93
2019-02-22T09:37:42.468Z,7.57
2019-02-22T09:40:14.780Z,4.77
2019-02-22T09:42:45.701Z,9.07
2019-02-22T09:45:16.268Z,7.93
2019-02-22T09:47:46.770Z,9.23
2019-02-22T09:50:17.431Z,7.70
2019-02-22T09:52:48.101Z,7.57
2019-02-22T09:55:18.734Z,10.03
2019-02-22T09:57:49.167Z,8.03
2019-02-22T10:00:19.651Z,7.53
2019-02-22T10:02:50.239Z,10.03
2019-02-22T10:05:20.800Z,11.50
2019-02-22T10:07:51.185Z,6.70
2019-02-22T10:10:22.022Z,7.43
2019-02-22T10:12:52.346Z,6.87
2019-02-22T10:15:24.623Z,9.60
2019-02-22T10:17:55.042Z,6.53
2019-02-22T10:20:25.608Z,6.20
2019-02-22T10:22:56.253Z,7.67
2019-02-22T10:25:27.039Z,8.33
2019-02-22T10:27:57.647Z,8.90
2019-02-22T10:30:28.146Z,6.57
2019-02-22T10:32:58.617Z,6.10
2019-02-22T10:35:29.305Z,6.63
2019-02-22T10:37:59.632Z,8.60
2019-02-22T10:40:30.241Z,4.90
2019-02-22T10:43:00.774Z,12.23
2019-02-22T10:45:31.776Z,6.97
2019-02-22T10:48:02.255Z,7.73
2019-02-22T10:50:32.779Z,8.10
2019-02-22T10:53:03.118Z,5.57
2019-02-22T10:55:33.567Z,8.07
2019-02-22T10:58:04.182Z,5.40
2019-02-22T11:00:35.182Z,5.43
2019-02-22T11:03:05.604Z,5.07
2019-02-22T11:05:36.170Z,7.93
2019-02-22T11:08:07.631Z,6.70
2019-02-22T11:10:38.094Z,6.43
2019-02-22T11:13:08.699Z,7.00
2019-02-22T11:15:39.102Z,8.63
2019-02-22T11:18:09.579Z,6.00
2019-02-22T11:20:40.422Z,13.27
2019-02-22T11:23:10.917Z,8.30
2019-02-22T11:25:41.306Z,8.40
2019-02-22T11:28:13.285Z,7.40
2019-02-22T11:30:45.243Z,6.27
2019-02-22T11:33:17.613Z,4.50
2019-02-22T11:35:49.883Z,8.03
2019-02-22T11:38:21.950Z,7.80
2019-02-22T11:40:54.014Z,6.93
2019-02-22T11:43:26.279Z,6.97
2019-02-22T11:45:58.651Z,7.20
2019-02-22T11:48:30.708Z,4.43
2019-02-22T11:51:03.080Z,4.67
2019-02-22T11:53:35.649Z,8.33
2019-02-22T11:56:07.722Z,5.67
2019-02-22T11:58:40.318Z,6.63
2019-02-22T12:01:12.873Z,6.10
2019-02-22T12:03:45.243Z,7.13
2019-02-22T12:06:17.203Z,5.63
2019-02-22T12:08:49.268Z,7.77
2019-02-22T12:11:21.536Z,5.23
2019-02-22T12:13:53.607Z,5.93
2019-02-22T12:16:26.355Z,5.97
2019-02-22T12:18:58.719Z,9.10
2019-02-22T12:21:30.909Z,7.53
2019-02-22T12:24:08.109Z,8.90
2019-02-22T12:26:40.279Z,9.07
2019-02-22T12:29:12.441Z,4.87
2019-02-22T12:31:44.286Z,7.47
2019-02-22T12:34:16.714Z,5.17
2019-02-22T12:36:50.874Z,7.07
2019-02-22T12:39:23.252Z,7.10
2019-02-22T12:41:55.221Z,6.93
2019-02-22T12:44:29.221Z,10.93
2019-02-22T12:47:01.903Z,3.73
2019-02-22T12:49:34.059Z,6.43
2019-02-22T12:52:06.223Z,4.60
2019-02-22T12:54:39.305Z,7.23
2019-02-22T12:57:12.016Z,6.70
2019-02-22T12:59:44.674Z,7.67
2019-02-22T13:02:17.244Z,5.50
2019-02-22T13:05:01.935Z,3.10
2019-02-22T13:07:36.630Z,4.27
2019-02-22T13:10:09.718Z,5.97
2019-02-22T13:12:43.108Z,5.70
2019-02-22T13:15:15.579Z,4.07
2019-02-22T13:17:47.952Z,7.47
2019-02-22T13:20:20.627Z,6.97
2019-02-22T13:22:52.588Z,4.13
2019-02-22T13:25:24.652Z,4.73
2019-02-22T13:27:57.129Z,6.90
2019-02-22T13:30:29.293Z,3.27
2019-02-22T13:33:01.459Z,5.60
2019-02-22T13:35:33.627Z,3.83
2019-02-22T13:38:06.609Z,4.77
2019-02-22T13:40:39.182Z,5.23
2019-02-22T13:43:11.350Z,6.43
2019-02-22T13:45:43.717Z,3.23
2019-02-22T13:48:16.298Z,4.47
2019-02-22T13:50:48.673Z,7.63
2019-02-22T13:53:21.243Z,7.47
2019-02-22T13:55:53.201Z,3.27
2019-02-22T13:58:25.068Z,4.33
2019-02-22T14:00:57.718Z,6.63
2019-02-22T14:03:29.903Z,8.60
2019-02-22T14:06:02.926Z,6.57
2019-02-22T14:08:35.158Z,13.03
2019-02-22T14:11:07.633Z,3.13
2019-02-22T14:13:39.896Z,7.90
2019-02-22T14:16:12.724Z,3.37
2019-02-22T14:18:44.721Z,4.63
2019-02-22T14:21:16.704Z,7.73
2019-02-22T14:23:49.278Z,6.53
2019-02-22T14:26:21.552Z,5.30
2019-02-22T14:28:53.614Z,4.03
2019-02-22T14:31:26.905Z,3.07
2019-02-22T14:33:59.478Z,4.50
2019-02-22T14:36:31.878Z,7.30
2019-02-22T14:39:05.656Z,9.53
2019-02-22T14:41:37.817Z,8.17
2019-02-22T14:44:10.700Z,7.97
2019-02-22T14:46:42.866Z,9.90
2019-02-22T14:49:15.239Z,8.70
2019-02-22T14:51:47.303Z,6.07
2019-02-22T14:54:19.976Z,9.53
2019-02-22T14:56:52.654Z,10.37
2019-02-22T14:59:24.720Z,9.43
2019-02-22T15:01:56.683Z,6.80
2019-02-22T15:04:29.869Z,9.90
2019-02-22T15:07:02.548Z,8.70
2019-02-22T15:09:34.614Z,9.93
2019-02-22T15:12:07.188Z,5.80
2019-02-22T15:14:40.273Z,10.77
2019-02-22T15:17:21.048Z,5.77
2019-02-22T15:19:53.307Z,7.53
2019-02-22T15:22:25.578Z,12.03
2019-02-22T15:24:57.949Z,7.27
2019-02-22T15:31:21.540Z,12.37
2019-02-22T15:36:28.430Z,8.70
2019-02-22T15:38:58.915Z,10.73
2019-02-22T15:41:29.487Z,6.27
2019-02-22T15:44:01.647Z,10.13
2019-02-22T15:46:32.265Z,7.63
2019-02-22T15:49:03.008Z,5.67
2019-02-22T15:51:33.674Z,5.80
2019-02-22T15:54:04.271Z,7.23
2019-02-22T15:56:35.116Z,11.83
2019-02-22T15:59:06.896Z,7.10
2019-02-22T16:01:37.825Z,8.00
2019-02-22T16:04:27.181Z,7.17
2019-02-22T16:06:57.944Z,7.00
2019-02-22T16:09:29.104Z,14.90
2019-02-22T16:12:00.410Z,7.40
2019-02-22T16:14:30.956Z,7.23
2019-02-22T16:17:01.836Z,7.40
2019-02-22T16:19:32.385Z,6.33
2019-02-22T16:22:02.908Z,4.27
2019-02-22T16:24:33.470Z,6.20
2019-02-22T16:27:04.215Z,9.23
2019-02-22T16:29:35.392Z,4.80
2019-02-22T16:32:06.740Z,6.60
2019-02-22T16:34:43.374Z,11.60
2019-02-22T16:37:09.863Z,10.10
2019-02-22T16:39:40.579Z,9.90
2019-02-22T16:42:11.129Z,8.50
2019-02-22T16:44:41.780Z,9.53
2019-02-22T16:47:12.488Z,9.57
2019-02-22T16:49:42.976Z,4.47
2019-02-22T16:52:15.824Z,6.67
2019-02-22T16:54:46.605Z,7.20
2019-02-22T16:57:20.531Z,8.57
2019-02-22T16:59:51.128Z,11.47
2019-02-22T17:02:21.755Z,5.03
2019-02-22T17:04:52.709Z,8.10
2019-02-22T17:07:23.375Z,4.47
2019-02-22T17:09:53.823Z,8.27
2019-02-22T17:12:24.348Z,4.07
2019-02-22T17:14:57.243Z,6.33
2019-02-22T17:17:27.976Z,7.50
2019-02-22T17:19:58.805Z,6.47
2019-02-22T17:22:29.208Z,9.13
2019-02-22T17:24:59.716Z,3.60
2019-02-22T17:27:33.506Z,8.33
2019-02-22T17:30:07.860Z,5.40
2019-02-22T17:32:38.466Z,8.43
2019-02-22T17:35:09.295Z,7.60
2019-02-22T17:37:39.895Z,8.07
2019-02-22T17:40:15.308Z,10.00
2019-02-22T17:42:46.224Z,6.90
2019-02-22T17:45:20.131Z,12.37
2019-02-22T17:47:50.824Z,10.63
2019-02-22T17:50:21.640Z,4.00
2019-02-22T17:52:53.099Z,9.33
2019-02-22T17:55:25.574Z,7.40
2019-02-22T17:57:56.402Z,8.87
2019-02-22T18:00:27.981Z,8.67
2019-02-22T18:03:00.094Z,10.57
2019-02-22T18:05:39.430Z,9.67
2019-02-22T18:08:11.983Z,8.80
2019-02-22T18:10:45.576Z,12.20
2019-02-22T18:13:19.616Z,15.60
2019-02-22T18:15:50.599Z,15.60
2019-02-22T18:18:24.994Z,16.13
2019-02-22T18:21:03.750Z,11.07
2019-02-22T18:23:35.877Z,10.37
2019-02-22T18:26:07.378Z,9.67
2019-02-22T18:28:38.532Z,11.33
2019-02-22T18:31:17.022Z,8.90
2019-02-22T18:33:48.701Z,9.60
2019-02-22T18:36:25.580Z,8.43
2019-02-22T18:38:58.840Z,11.53
2019-02-22T18:41:32.912Z,10.80
2019-02-22T18:44:07.076Z,10.87
2019-02-22T18:46:39.912Z,9.97
2019-02-22T18:49:10.955Z,10.43
2019-02-22T18:51:47.288Z,14.43
2019-02-22T18:54:18.474Z,9.13
2019-02-22T18:56:53.327Z,10.20
2019-02-22T18:59:29.681Z,7.77
2019-02-22T19:02:04.407Z,10.37
2019-02-22T19:04:38.672Z,12.87
2019-02-22T19:07:09.497Z,14.20
2019-02-22T19:09:42.421Z,15.70
2019-02-22T19:12:19.898Z,10.83
2019-02-22T19:14:51.920Z,11.10
2019-02-22T19:17:30.183Z,12.03
2019-02-22T19:19:59.307Z,13.97
2019-02-22T19:22:42.819Z,11.07
2019-02-22T19:25:19.896Z,11.23
2019-02-22T19:27:50.773Z,8.37
2019-02-22T19:30:23.814Z,10.73
2019-02-22T19:33:00.319Z,15.77
2019-02-22T19:35:36.397Z,19.43
2019-02-22T19:38:11.319Z,23.03
2019-02-22T19:40:42.355Z,14.37
2019-02-22T19:43:14.942Z,14.50
2019-02-22T19:45:50.061Z,15.23
2019-02-22T19:48:26.698Z,15.60
2019-02-22T19:51:04.041Z,13.10
2019-02-22T19:53:34.977Z,12.13
2019-02-22T19:56:11.898Z,16.33
2019-02-22T19:58:47.975Z,12.93
2019-02-22T20:01:27.006Z,14.47
2019-02-22T20:03:58.688Z,16.27
2019-02-22T20:06:32.255Z,19.80
2019-02-22T20:09:06.905Z,23.17
2019-02-22T20:11:40.243Z,18.43
2019-02-22T20:14:21.704Z,20.03
2019-02-22T20:16:55.408Z,20.47
2019-02-22T20:19:43.215Z,33.77
2019-02-22T20:22:19.196Z,47.77
2019-02-22T20:24:54.626Z,56.00
2019-02-22T20:27:25.810Z,55.50
2019-02-22T20:29:56.329Z,62.07
2019-02-22T20:32:27.139Z,59.67
2019-02-22T20:35:04.323Z,66.07
2019-02-22T20:37:39.756Z,62.63
2019-02-22T20:40:13.477Z,67.40
2019-02-22T20:42:44.279Z,62.30
2019-02-22T20:45:21.968Z,67.20
2019-02-22T20:48:04.614Z,50.03
2019-02-22T20:50:39.462Z,45.93
2019-02-22T20:53:13.729Z,49.83
2019-02-22T20:55:46.863Z,42.97
2019-02-22T20:58:20.031Z,44.60
2019-02-22T21:00:54.291Z,42.10
2019-02-22T21:03:30.950Z,46.07
2019-02-22T21:06:04.291Z,35.60
2019-02-22T21:08:34.920Z,24.40
2019-02-22T21:11:08.273Z,26.23
2019-02-22T21:13:42.736Z,18.73
2019-02-22T21:16:13.650Z,10.17
2019-02-22T21:18:46.300Z,16.77
2019-02-22T21:21:24.930Z,23.07
2019-02-22T21:23:56.609Z,16.73
2019-02-22T21:26:30.760Z,16.30
2019-02-22T21:29:01.740Z,20.53
2019-02-22T21:31:37.021Z,30.93
2019-02-22T21:34:08.573Z,26.97
2019-02-22T21:36:39.435Z,24.73
2019-02-22T21:39:13.741Z,28.30
2019-02-22T21:41:45.385Z,26.63
2019-02-22T21:44:15.993Z,28.17
2019-02-22T21:46:49.797Z,34.50
2019-02-22T21:49:20.520Z,27.93
2019-02-22T21:51:53.213Z,33.83
2019-02-22T21:54:23.750Z,30.73
2019-02-22T21:56:54.275Z,36.83
2019-02-22T21:59:28.404Z,28.27
2019-02-22T22:01:58.984Z,23.53
2019-02-22T22:04:29.691Z,22.97
2019-02-22T22:07:01.367Z,33.43
2019-02-22T22:09:31.894Z,27.93
2019-02-22T22:12:02.815Z,30.33
2019-02-22T22:14:33.444Z,31.10
2019-02-22T22:17:04.121Z,23.23
2019-02-22T22:19:34.829Z,20.67
2019-02-22T22:22:05.372Z,28.20
2019-02-22T22:24:36.011Z,23.07
2019-02-22T22:27:06.718Z,28.83
2019-02-22T22:29:37.192Z,26.63
2019-02-22T22:32:07.977Z,28.83
2019-02-22T22:34:38.426Z,23.83
2019-02-22T22:37:09.074Z,30.63
2019-02-22T22:39:40.756Z,25.93
2019-02-22T22:42:11.566Z,23.97
2019-02-22T22:44:42.070Z,28.80
2019-02-22T22:47:12.636Z,24.03
2019-02-22T22:49:43.085Z,24.03
2019-02-22T22:52:13.651Z,27.90
2019-02-22T22:54:44.012Z,34.90
2019-02-22T22:57:14.948Z,32.50
2019-02-22T22:59:45.335Z,31.43
2019-02-22T23:02:16.077Z,30.60
2019-02-22T23:04:46.668Z,26.83
2019-02-22T23:07:17.291Z,30.27
2019-02-22T23:09:47.801Z,28.83
2019-02-22T23:12:18.253Z,27.67
2019-02-22T23:14:48.678Z,20.63
2019-02-22T23:17:19.171Z,24.70
2019-02-22T23:19:49.735Z,27.63
2019-02-22T23:22:20.218Z,17.80
2019-02-22T23:24:50.786Z,36.97
2019-02-22T23:27:21.336Z,28.50
2019-02-22T23:29:51.684Z,29.47
2019-02-22T23:32:22.182Z,28.77
2019-02-22T23:34:52.616Z,23.83
2019-02-22T23:37:23.024Z,30.07
2019-02-22T23:39:53.451Z,30.20
2019-02-22T23:42:23.961Z,27.27
2019-02-22T23:44:54.404Z,32.30
2019-02-22T23:47:25.437Z,30.77
2019-02-22T23:49:55.796Z,7.80
2019-02-22T23:52:26.481Z,27.83
2019-02-22T23:54:56.945Z,32.20
2019-02-22T23:57:27.443Z,29.30
2019-02-22T23:59:57.959Z,28.70
